sensor_id;sensor_type;location;lat;lon;timestamp;P1;durP1;ratioP1;P2;durP2;ratioP2
35294;SDS011;21413;48.032;7.764;2022-07-10T00:00:39;3.17;;;2.87;;
35294;SDS011;21413;48.032;7.764;2022-07-10T00:03:05;3.90;;;3.60;;
35294;SDS011;21413;48.032;7.764;2022-07-10T00:05:31;5.03;;;2.87;;
35294;SDS011;21413;48.032;7.764;2022-07-10T00:07:59;2.83;;;2.77;;
35294;SDS011;21413;48.032;7.764;2022-07-10T00:10:25;3.13;;;3.00;;
35294;SDS011;21413;48.032;7.764;2022-07-10T00:12:53;3.20;;;3.10;;
35294;SDS011;21413;48.032;7.764;2022-07-10T00:15:19;3.63;;;3.40;;
35294;SDS011;21413;48.032;7.764;2022-07-10T00:17:45;3.33;;;3.10;;
35294;SDS011;21413;48.032;7.764;2022-07-10T00:20:12;3.50;;;3.40;;
35294;SDS011;21413;48.032;7.764;2022-07-10T00:22:38;3.03;;;2.73;;
35294;SDS011;21413;48.032;7.764;2022-07-10T00:25:05;3.20;;;3.20;;
35294;SDS011;21413;48.032;7.764;2022-07-10T00:27:31;4.47;;;3.60;;
35294;SDS011;21413;48.032;7.764;2022-07-10T00:29:57;3.30;;;3.17;;
35294;SDS011;21413;48.032;7.764;2022-07-10T00:32:24;3.27;;;3.17;;
35294;SDS011;21413;48.032;7.764;2022-07-10T00:34:50;3.93;;;3.63;;
35294;SDS011;21413;48.032;7.764;2022-07-10T00:37:16;3.27;;;3.00;;
35294;SDS011;21413;48.032;7.764;2022-07-10T00:39:42;7.43;;;3.23;;
35294;SDS011;21413;48.032;7.764;2022-07-10T00:42:09;3.90;;;3.50;;
35294;SDS011;21413;48.032;7.764;2022-07-10T00:44:35;3.83;;;3.63;;
35294;SDS011;21413;48.032;7.764;2022-07-10T00:47:02;4.20;;;3.30;;
35294;SDS011;21413;48.032;7.764;2022-07-10T00:49:29;5.33;;;3.93;;
35294;SDS011;21413;48.032;7.764;2022-07-10T00:51:55;4.07;;;3.77;;
35294;SDS011;21413;48.032;7.764;2022-07-10T00:54:21;3.90;;;3.80;;
35294;SDS011;21413;48.032;7.764;2022-07-10T00:56:47;3.37;;;3.37;;
35294;SDS011;21413;48.032;7.764;2022-07-10T00:59:13;3.80;;;3.70;;
35294;SDS011;21413;48.032;7.764;2022-07-10T01:01:39;4.10;;;3.80;;
35294;SDS011;21413;48.032;7.764;2022-07-10T01:04:05;3.73;;;3.63;;
35294;SDS011;21413;48.032;7.764;2022-07-10T01:06:31;4.03;;;3.63;;
35294;SDS011;21413;48.032;7.764;2022-07-10T01:08:57;3.57;;;3.47;;
35294;SDS011;21413;48.032;7.764;2022-07-10T01:11:23;3.70;;;3.60;;
35294;SDS011;21413;48.032;7.764;2022-07-10T01:13:49;4.33;;;4.03;;
35294;SDS011;21413;48.032;7.764;2022-07-10T01:16:15;4.43;;;4.13;;
35294;SDS011;21413;48.032;7.764;2022-07-10T01:18:42;3.93;;;3.73;;
35294;SDS011;21413;48.032;7.764;2022-07-10T01:21:27;3.67;;;3.50;;
35294;SDS011;21413;48.032;7.764;2022-07-10T01:23:54;4.10;;;3.83;;
35294;SDS011;21413;48.032;7.764;2022-07-10T01:26:20;4.70;;;3.80;;
35294;SDS011;21413;48.032;7.764;2022-07-10T01:28:48;4.20;;;4.10;;
35294;SDS011;21413;48.032;7.764;2022-07-10T01:31:15;4.20;;;4.00;;
35294;SDS011;21413;48.032;7.764;2022-07-10T01:33:41;4.57;;;4.27;;
35294;SDS011;21413;48.032;7.764;2022-07-10T01:36:07;5.93;;;4.00;;
35294;SDS011;21413;48.032;7.764;2022-07-10T01:38:33;4.33;;;4.23;;
35294;SDS011;21413;48.032;7.764;2022-07-10T01:40:59;4.60;;;4.00;;
35294;SDS011;21413;48.032;7.764;2022-07-10T01:43:25;7.60;;;4.03;;
35294;SDS011;21413;48.032;7.764;2022-07-10T01:45:51;4.27;;;4.17;;
35294;SDS011;21413;48.032;7.764;2022-07-10T01:48:17;4.53;;;4.30;;
35294;SDS011;21413;48.032;7.764;2022-07-10T01:50:43;5.23;;;4.03;;
35294;SDS011;21413;48.032;7.764;2022-07-10T01:53:09;4.50;;;4.40;;
35294;SDS011;21413;48.032;7.764;2022-07-10T01:55:35;4.80;;;4.33;;
35294;SDS011;21413;48.032;7.764;2022-07-10T01:58:02;4.93;;;4.63;;
35294;SDS011;21413;48.032;7.764;2022-07-10T02:00:28;6.53;;;4.37;;
35294;SDS011;21413;48.032;7.764;2022-07-10T02:02:54;4.50;;;4.13;;
35294;SDS011;21413;48.032;7.764;2022-07-10T02:05:38;4.33;;;4.13;;
35294;SDS011;21413;48.032;7.764;2022-07-10T02:08:04;4.47;;;4.37;;
35294;SDS011;21413;48.032;7.764;2022-07-10T02:10:31;4.70;;;4.50;;
35294;SDS011;21413;48.032;7.764;2022-07-10T02:12:57;5.43;;;4.47;;
35294;SDS011;21413;48.032;7.764;2022-07-10T02:15:23;5.13;;;4.63;;
35294;SDS011;21413;48.032;7.764;2022-07-10T02:17:49;4.47;;;4.17;;
35294;SDS011;21413;48.032;7.764;2022-07-10T02:20:15;4.77;;;4.60;;
35294;SDS011;21413;48.032;7.764;2022-07-10T02:22:41;5.07;;;4.87;;
35294;SDS011;21413;48.032;7.764;2022-07-10T02:25:07;5.63;;;5.20;;
35294;SDS011;21413;48.032;7.764;2022-07-10T02:27:33;4.90;;;4.70;;
35294;SDS011;21413;48.032;7.764;2022-07-10T02:29:59;5.13;;;4.83;;
35294;SDS011;21413;48.032;7.764;2022-07-10T02:32:25;5.77;;;5.37;;
35294;SDS011;21413;48.032;7.764;2022-07-10T02:34:52;5.87;;;5.27;;
35294;SDS011;21413;48.032;7.764;2022-07-10T02:37:18;5.27;;;4.73;;
35294;SDS011;21413;48.032;7.764;2022-07-10T02:39:44;5.30;;;5.07;;
35294;SDS011;21413;48.032;7.764;2022-07-10T02:42:10;6.03;;;5.70;;
35294;SDS011;21413;48.032;7.764;2022-07-10T02:44:36;5.27;;;5.10;;
35294;SDS011;21413;48.032;7.764;2022-07-10T02:47:02;4.47;;;4.37;;
35294;SDS011;21413;48.032;7.764;2022-07-10T02:49:28;5.00;;;4.80;;
35294;SDS011;21413;48.032;7.764;2022-07-10T02:51:54;8.13;;;5.23;;
35294;SDS011;21413;48.032;7.764;2022-07-10T02:54:20;6.07;;;5.57;;
35294;SDS011;21413;48.032;7.764;2022-07-10T02:56:46;7.63;;;5.47;;
35294;SDS011;21413;48.032;7.764;2022-07-10T02:59:12;6.30;;;6.00;;
35294;SDS011;21413;48.032;7.764;2022-07-10T03:01:38;5.00;;;4.80;;
35294;SDS011;21413;48.032;7.764;2022-07-10T03:04:04;5.43;;;5.13;;
35294;SDS011;21413;48.032;7.764;2022-07-10T03:06:30;5.17;;;4.97;;
35294;SDS011;21413;48.032;7.764;2022-07-10T03:08:56;7.93;;;5.40;;
35294;SDS011;21413;48.032;7.764;2022-07-10T03:11:22;6.30;;;5.90;;
35294;SDS011;21413;48.032;7.764;2022-07-10T03:13:48;5.37;;;5.17;;
35294;SDS011;21413;48.032;7.764;2022-07-10T03:16:14;5.47;;;5.27;;
35294;SDS011;21413;48.032;7.764;2022-07-10T03:18:40;5.63;;;5.53;;
35294;SDS011;21413;48.032;7.764;2022-07-10T03:21:06;6.40;;;6.00;;
35294;SDS011;21413;48.032;7.764;2022-07-10T03:23:32;6.77;;;6.37;;
35294;SDS011;21413;48.032;7.764;2022-07-10T03:25:58;6.77;;;6.27;;
35294;SDS011;21413;48.032;7.764;2022-07-10T03:28:23;7.00;;;6.43;;
35294;SDS011;21413;48.032;7.764;2022-07-10T03:30:50;6.40;;;6.10;;
35294;SDS011;21413;48.032;7.764;2022-07-10T03:33:16;7.60;;;6.93;;
35294;SDS011;21413;48.032;7.764;2022-07-10T03:35:42;7.47;;;6.97;;
35294;SDS011;21413;48.032;7.764;2022-07-10T03:38:08;6.50;;;6.10;;
35294;SDS011;21413;48.032;7.764;2022-07-10T03:40:34;9.97;;;7.80;;
35294;SDS011;21413;48.032;7.764;2022-07-10T03:43:00;8.13;;;7.60;;
35294;SDS011;21413;48.032;7.764;2022-07-10T03:45:26;7.10;;;6.70;;
35294;SDS011;21413;48.032;7.764;2022-07-10T03:47:52;7.70;;;7.30;;
35294;SDS011;21413;48.032;7.764;2022-07-10T03:50:18;8.10;;;7.37;;
35294;SDS011;21413;48.032;7.764;2022-07-10T03:52:44;7.93;;;7.20;;
35294;SDS011;21413;48.032;7.764;2022-07-10T03:55:11;8.50;;;8.00;;
35294;SDS011;21413;48.032;7.764;2022-07-10T03:57:37;7.07;;;6.73;;
35294;SDS011;21413;48.032;7.764;2022-07-10T04:00:18;7.87;;;7.37;;
35294;SDS011;21413;48.032;7.764;2022-07-10T04:02:44;6.90;;;6.50;;
35294;SDS011;21413;48.032;7.764;2022-07-10T04:05:10;8.53;;;7.90;;
35294;SDS011;21413;48.032;7.764;2022-07-10T04:07:36;8.80;;;8.20;;
35294;SDS011;21413;48.032;7.764;2022-07-10T04:10:02;8.23;;;7.57;;
35294;SDS011;21413;48.032;7.764;2022-07-10T04:12:29;7.00;;;6.40;;
35294;SDS011;21413;48.032;7.764;2022-07-10T04:14:54;7.23;;;6.63;;
35294;SDS011;21413;48.032;7.764;2022-07-10T04:17:21;6.73;;;6.43;;
35294;SDS011;21413;48.032;7.764;2022-07-10T04:19:47;7.10;;;6.70;;
35294;SDS011;21413;48.032;7.764;2022-07-10T04:22:13;7.27;;;6.60;;
35294;SDS011;21413;48.032;7.764;2022-07-10T04:24:39;7.00;;;6.50;;
35294;SDS011;21413;48.032;7.764;2022-07-10T04:27:05;6.73;;;6.33;;
35294;SDS011;21413;48.032;7.764;2022-07-10T04:29:31;6.10;;;5.90;;
35294;SDS011;21413;48.032;7.764;2022-07-10T04:31:57;6.17;;;5.97;;
35294;SDS011;21413;48.032;7.764;2022-07-10T04:34:23;5.77;;;5.47;;
35294;SDS011;21413;48.032;7.764;2022-07-10T04:36:49;5.40;;;5.10;;
35294;SDS011;21413;48.032;7.764;2022-07-10T04:39:15;5.67;;;5.40;;
35294;SDS011;21413;48.032;7.764;2022-07-10T04:41:41;4.87;;;4.53;;
35294;SDS011;21413;48.032;7.764;2022-07-10T04:44:07;4.83;;;4.63;;
35294;SDS011;21413;48.032;7.764;2022-07-10T04:46:33;4.73;;;4.50;;
35294;SDS011;21413;48.032;7.764;2022-07-10T04:48:59;4.60;;;4.30;;
35294;SDS011;21413;48.032;7.764;2022-07-10T04:51:25;3.90;;;3.80;;
35294;SDS011;21413;48.032;7.764;2022-07-10T04:53:52;4.23;;;3.87;;
35294;SDS011;21413;48.032;7.764;2022-07-10T04:56:17;4.37;;;4.03;;
35294;SDS011;21413;48.032;7.764;2022-07-10T04:58:43;4.17;;;3.73;;
35294;SDS011;21413;48.032;7.764;2022-07-10T05:01:10;5.03;;;3.40;;
35294;SDS011;21413;48.032;7.764;2022-07-10T05:03:36;4.30;;;3.40;;
35294;SDS011;21413;48.032;7.764;2022-07-10T05:06:02;3.60;;;3.50;;
35294;SDS011;21413;48.032;7.764;2022-07-10T05:08:28;9.07;;;8.27;;
35294;SDS011;21413;48.032;7.764;2022-07-10T05:10:54;11.63;;;10.63;;
35294;SDS011;21413;48.032;7.764;2022-07-10T05:13:20;3.47;;;3.27;;
35294;SDS011;21413;48.032;7.764;2022-07-10T05:15:46;4.07;;;3.77;;
35294;SDS011;21413;48.032;7.764;2022-07-10T05:18:12;4.23;;;3.40;;
35294;SDS011;21413;48.032;7.764;2022-07-10T05:20:38;2.93;;;2.83;;
35294;SDS011;21413;48.032;7.764;2022-07-10T05:23:07;3.00;;;2.90;;
35294;SDS011;21413;48.032;7.764;2022-07-10T05:25:33;3.50;;;3.30;;
35294;SDS011;21413;48.032;7.764;2022-07-10T05:27:59;2.90;;;2.60;;
35294;SDS011;21413;48.032;7.764;2022-07-10T05:30:25;3.13;;;2.90;;
35294;SDS011;21413;48.032;7.764;2022-07-10T05:32:51;8.00;;;3.03;;
35294;SDS011;21413;48.032;7.764;2022-07-10T05:35:17;3.20;;;2.93;;
35294;SDS011;21413;48.032;7.764;2022-07-10T05:37:43;3.20;;;3.00;;
35294;SDS011;21413;48.032;7.764;2022-07-10T05:40:09;6.77;;;3.37;;
35294;SDS011;21413;48.032;7.764;2022-07-10T05:42:35;3.00;;;2.90;;
35294;SDS011;21413;48.032;7.764;2022-07-10T05:45:01;3.50;;;2.90;;
35294;SDS011;21413;48.032;7.764;2022-07-10T05:47:28;2.73;;;2.53;;
35294;SDS011;21413;48.032;7.764;2022-07-10T05:49:54;6.03;;;5.43;;
35294;SDS011;21413;48.032;7.764;2022-07-10T05:52:20;4.87;;;3.30;;
35294;SDS011;21413;48.032;7.764;2022-07-10T05:54:46;3.20;;;3.10;;
35294;SDS011;21413;48.032;7.764;2022-07-10T05:57:12;4.00;;;2.60;;
35294;SDS011;21413;48.032;7.764;2022-07-10T05:59:38;8.83;;;3.87;;
35294;SDS011;21413;48.032;7.764;2022-07-10T06:02:04;2.63;;;2.53;;
35294;SDS011;21413;48.032;7.764;2022-07-10T06:04:30;3.47;;;2.50;;
35294;SDS011;21413;48.032;7.764;2022-07-10T06:06:56;3.23;;;2.90;;
35294;SDS011;21413;48.032;7.764;2022-07-10T06:09:22;2.47;;;2.37;;
35294;SDS011;21413;48.032;7.764;2022-07-10T06:11:48;5.70;;;2.57;;
35294;SDS011;21413;48.032;7.764;2022-07-10T06:14:14;3.00;;;2.80;;
35294;SDS011;21413;48.032;7.764;2022-07-10T06:16:40;2.67;;;2.07;;
35294;SDS011;21413;48.032;7.764;2022-07-10T06:19:06;3.10;;;2.87;;
35294;SDS011;21413;48.032;7.764;2022-07-10T06:21:32;4.30;;;2.63;;
35294;SDS011;21413;48.032;7.764;2022-07-10T06:23:58;3.57;;;2.60;;
35294;SDS011;21413;48.032;7.764;2022-07-10T06:26:24;2.83;;;2.50;;
35294;SDS011;21413;48.032;7.764;2022-07-10T06:28:50;12.10;;;10.90;;
35294;SDS011;21413;48.032;7.764;2022-07-10T06:31:16;3.50;;;2.50;;
35294;SDS011;21413;48.032;7.764;2022-07-10T06:33:42;3.93;;;2.80;;
35294;SDS011;21413;48.032;7.764;2022-07-10T06:36:08;2.70;;;2.50;;
35294;SDS011;21413;48.032;7.764;2022-07-10T06:38:34;2.90;;;2.80;;
35294;SDS011;21413;48.032;7.764;2022-07-10T06:41:00;2.87;;;2.60;;
35294;SDS011;21413;48.032;7.764;2022-07-10T06:43:26;3.67;;;2.90;;
35294;SDS011;21413;48.032;7.764;2022-07-10T06:45:52;4.93;;;2.63;;
35294;SDS011;21413;48.032;7.764;2022-07-10T06:48:18;6.30;;;2.40;;
35294;SDS011;21413;48.032;7.764;2022-07-10T06:50:45;21.53;;;2.70;;
35294;SDS011;21413;48.032;7.764;2022-07-10T06:53:11;3.33;;;2.40;;
35294;SDS011;21413;48.032;7.764;2022-07-10T06:55:37;5.67;;;2.60;;
35294;SDS011;21413;48.032;7.764;2022-07-10T06:58:03;5.70;;;2.63;;
35294;SDS011;21413;48.032;7.764;2022-07-10T07:00:29;2.77;;;2.67;;
35294;SDS011;21413;48.032;7.764;2022-07-10T07:02:55;2.80;;;2.60;;
35294;SDS011;21413;48.032;7.764;2022-07-10T07:05:21;4.23;;;2.37;;
35294;SDS011;21413;48.032;7.764;2022-07-10T07:07:47;2.53;;;2.37;;
35294;SDS011;21413;48.032;7.764;2022-07-10T07:10:13;2.70;;;2.33;;
35294;SDS011;21413;48.032;7.764;2022-07-10T07:12:39;6.60;;;3.00;;
35294;SDS011;21413;48.032;7.764;2022-07-10T07:15:05;3.47;;;2.50;;
35294;SDS011;21413;48.032;7.764;2022-07-10T07:17:31;5.13;;;2.50;;
35294;SDS011;21413;48.032;7.764;2022-07-10T07:20:11;3.33;;;3.10;;
35294;SDS011;21413;48.032;7.764;2022-07-10T07:22:56;6.07;;;2.97;;
35294;SDS011;21413;48.032;7.764;2022-07-10T07:25:34;4.50;;;2.10;;
35294;SDS011;21413;48.032;7.764;2022-07-10T07:28:01;7.87;;;5.93;;
35294;SDS011;21413;48.032;7.764;2022-07-10T07:30:27;5.73;;;5.23;;
35294;SDS011;21413;48.032;7.764;2022-07-10T07:32:53;6.67;;;2.90;;
35294;SDS011;21413;48.032;7.764;2022-07-10T07:35:19;4.53;;;2.73;;
35294;SDS011;21413;48.032;7.764;2022-07-10T07:37:46;7.20;;;3.20;;
35294;SDS011;21413;48.032;7.764;2022-07-10T07:40:13;3.70;;;2.40;;
35294;SDS011;21413;48.032;7.764;2022-07-10T07:42:39;5.37;;;2.40;;
35294;SDS011;21413;48.032;7.764;2022-07-10T07:45:06;3.03;;;2.70;;
35294;SDS011;21413;48.032;7.764;2022-07-10T07:47:41;3.60;;;2.60;;
35294;SDS011;21413;48.032;7.764;2022-07-10T07:50:08;2.70;;;2.50;;
35294;SDS011;21413;48.032;7.764;2022-07-10T07:52:34;2.67;;;2.17;;
35294;SDS011;21413;48.032;7.764;2022-07-10T07:55:00;2.93;;;2.60;;
35294;SDS011;21413;48.032;7.764;2022-07-10T07:57:27;2.87;;;2.50;;
35294;SDS011;21413;48.032;7.764;2022-07-10T07:59:53;5.90;;;2.23;;
35294;SDS011;21413;48.032;7.764;2022-07-10T08:02:18;2.67;;;2.50;;
35294;SDS011;21413;48.032;7.764;2022-07-10T08:04:44;2.17;;;2.03;;
35294;SDS011;21413;48.032;7.764;2022-07-10T08:07:10;2.23;;;2.13;;
35294;SDS011;21413;48.032;7.764;2022-07-10T08:09:37;2.13;;;2.00;;
35294;SDS011;21413;48.032;7.764;2022-07-10T08:12:04;1.60;;;1.60;;
35294;SDS011;21413;48.032;7.764;2022-07-10T08:14:30;2.07;;;1.93;;
35294;SDS011;21413;48.032;7.764;2022-07-10T08:16:56;3.33;;;2.73;;
35294;SDS011;21413;48.032;7.764;2022-07-10T08:19:22;4.60;;;2.70;;
35294;SDS011;21413;48.032;7.764;2022-07-10T08:21:48;3.27;;;2.50;;
35294;SDS011;21413;48.032;7.764;2022-07-10T08:24:14;3.17;;;2.90;;
35294;SDS011;21413;48.032;7.764;2022-07-10T08:26:40;2.37;;;2.00;;
35294;SDS011;21413;48.032;7.764;2022-07-10T08:29:06;14.23;;;10.60;;
35294;SDS011;21413;48.032;7.764;2022-07-10T08:31:32;6.20;;;2.30;;
35294;SDS011;21413;48.032;7.764;2022-07-10T08:33:59;5.70;;;2.80;;
35294;SDS011;21413;48.032;7.764;2022-07-10T08:36:25;5.57;;;2.53;;
35294;SDS011;21413;48.032;7.764;2022-07-10T08:38:51;4.67;;;2.50;;
35294;SDS011;21413;48.032;7.764;2022-07-10T08:41:20;6.67;;;2.60;;
35294;SDS011;21413;48.032;7.764;2022-07-10T08:43:46;4.27;;;2.40;;
35294;SDS011;21413;48.032;7.764;2022-07-10T08:46:12;3.43;;;2.23;;
35294;SDS011;21413;48.032;7.764;2022-07-10T08:48:39;2.87;;;2.60;;
35294;SDS011;21413;48.032;7.764;2022-07-10T08:51:06;2.00;;;1.90;;
35294;SDS011;21413;48.032;7.764;2022-07-10T08:53:32;3.03;;;2.73;;
35294;SDS011;21413;48.032;7.764;2022-07-10T08:55:59;4.83;;;2.60;;
35294;SDS011;21413;48.032;7.764;2022-07-10T08:58:28;3.13;;;2.30;;
35294;SDS011;21413;48.032;7.764;2022-07-10T09:00:56;4.40;;;2.50;;
35294;SDS011;21413;48.032;7.764;2022-07-10T09:03:22;4.43;;;2.40;;
35294;SDS011;21413;48.032;7.764;2022-07-10T09:05:48;2.90;;;2.40;;
35294;SDS011;21413;48.032;7.764;2022-07-10T09:08:25;2.67;;;2.57;;
35294;SDS011;21413;48.032;7.764;2022-07-10T09:10:59;2.80;;;2.60;;
35294;SDS011;21413;48.032;7.764;2022-07-10T09:13:51;5.10;;;2.90;;
35294;SDS011;21413;48.032;7.764;2022-07-10T09:16:24;3.87;;;2.73;;
35294;SDS011;21413;48.032;7.764;2022-07-10T09:18:50;5.80;;;2.50;;
35294;SDS011;21413;48.032;7.764;2022-07-10T09:21:16;2.50;;;2.40;;
35294;SDS011;21413;48.032;7.764;2022-07-10T09:23:42;2.80;;;2.60;;
35294;SDS011;21413;48.032;7.764;2022-07-10T09:26:08;2.37;;;2.27;;
35294;SDS011;21413;48.032;7.764;2022-07-10T09:28:34;2.87;;;2.63;;
35294;SDS011;21413;48.032;7.764;2022-07-10T09:31:00;5.43;;;2.33;;
35294;SDS011;21413;48.032;7.764;2022-07-10T09:33:29;5.80;;;2.60;;
35294;SDS011;21413;48.032;7.764;2022-07-10T09:41:16;2.77;;;2.57;;
35294;SDS011;21413;48.032;7.764;2022-07-10T09:43:42;2.53;;;2.33;;
35294;SDS011;21413;48.032;7.764;2022-07-10T09:46:09;2.93;;;2.40;;
35294;SDS011;21413;48.032;7.764;2022-07-10T09:48:35;4.10;;;2.10;;
35294;SDS011;21413;48.032;7.764;2022-07-10T09:51:02;4.00;;;2.20;;
35294;SDS011;21413;48.032;7.764;2022-07-10T09:53:28;3.97;;;2.23;;
35294;SDS011;21413;48.032;7.764;2022-07-10T09:55:54;2.80;;;2.60;;
35294;SDS011;21413;48.032;7.764;2022-07-10T09:58:22;2.77;;;2.57;;
35294;SDS011;21413;48.032;7.764;2022-07-10T10:00:51;3.23;;;2.20;;
35294;SDS011;21413;48.032;7.764;2022-07-10T10:03:18;2.20;;;2.10;;
35294;SDS011;21413;48.032;7.764;2022-07-10T10:05:53;2.60;;;2.40;;
35294;SDS011;21413;48.032;7.764;2022-07-10T10:08:27;2.60;;;2.40;;
35294;SDS011;21413;48.032;7.764;2022-07-10T10:10:56;3.53;;;2.73;;
35294;SDS011;21413;48.032;7.764;2022-07-10T10:13:23;6.93;;;2.90;;
35294;SDS011;21413;48.032;7.764;2022-07-10T10:15:50;3.77;;;2.60;;
35294;SDS011;21413;48.032;7.764;2022-07-10T10:18:21;3.87;;;3.43;;
35294;SDS011;21413;48.032;7.764;2022-07-10T10:20:48;2.10;;;2.00;;
35294;SDS011;21413;48.032;7.764;2022-07-10T10:23:17;2.43;;;2.30;;
35294;SDS011;21413;48.032;7.764;2022-07-10T10:25:46;3.60;;;2.70;;
35294;SDS011;21413;48.032;7.764;2022-07-10T10:28:12;6.13;;;3.80;;
35294;SDS011;21413;48.032;7.764;2022-07-10T10:30:39;3.50;;;2.60;;
35294;SDS011;21413;48.032;7.764;2022-07-10T10:35:51;2.50;;;2.30;;
35294;SDS011;21413;48.032;7.764;2022-07-10T10:38:17;5.77;;;2.40;;
35294;SDS011;21413;48.032;7.764;2022-07-10T10:40:43;3.03;;;2.93;;
35294;SDS011;21413;48.032;7.764;2022-07-10T10:45:44;5.47;;;2.40;;
35294;SDS011;21413;48.032;7.764;2022-07-10T10:48:11;5.80;;;2.70;;
35294;SDS011;21413;48.032;7.764;2022-07-10T10:53:17;2.23;;;2.07;;
35294;SDS011;21413;48.032;7.764;2022-07-10T10:58:26;2.37;;;2.20;;
35294;SDS011;21413;48.032;7.764;2022-07-10T11:00:52;2.07;;;1.97;;
35294;SDS011;21413;48.032;7.764;2022-07-10T11:03:27;2.37;;;2.27;;
35294;SDS011;21413;48.032;7.764;2022-07-10T11:05:53;2.67;;;2.47;;
35294;SDS011;21413;48.032;7.764;2022-07-10T11:09:03;2.70;;;2.50;;
35294;SDS011;21413;48.032;7.764;2022-07-10T11:13:56;2.63;;;2.43;;
35294;SDS011;21413;48.032;7.764;2022-07-10T11:16:22;2.37;;;2.27;;
35294;SDS011;21413;48.032;7.764;2022-07-10T11:18:52;3.13;;;2.30;;
35294;SDS011;21413;48.032;7.764;2022-07-10T11:21:22;1.80;;;1.70;;
35294;SDS011;21413;48.032;7.764;2022-07-10T11:28:53;2.17;;;2.07;;
35294;SDS011;21413;48.032;7.764;2022-07-10T11:31:20;2.30;;;1.53;;
35294;SDS011;21413;48.032;7.764;2022-07-10T11:33:46;2.00;;;1.80;;
35294;SDS011;21413;48.032;7.764;2022-07-10T11:36:20;2.10;;;2.00;;
35294;SDS011;21413;48.032;7.764;2022-07-10T11:38:55;3.77;;;2.20;;
35294;SDS011;21413;48.032;7.764;2022-07-10T11:41:21;2.10;;;2.00;;
35294;SDS011;21413;48.032;7.764;2022-07-10T11:43:49;2.60;;;2.03;;
35294;SDS011;21413;48.032;7.764;2022-07-10T11:46:15;9.17;;;8.07;;
35294;SDS011;21413;48.032;7.764;2022-07-10T11:48:41;6.63;;;1.80;;
35294;SDS011;21413;48.032;7.764;2022-07-10T11:51:26;2.07;;;1.60;;
35294;SDS011;21413;48.032;7.764;2022-07-10T11:56:19;1.43;;;1.33;;
35294;SDS011;21413;48.032;7.764;2022-07-10T12:04:10;2.00;;;1.83;;
35294;SDS011;21413;48.032;7.764;2022-07-10T12:06:37;4.83;;;1.60;;
35294;SDS011;21413;48.032;7.764;2022-07-10T12:09:07;2.23;;;2.13;;
35294;SDS011;21413;48.032;7.764;2022-07-10T12:11:34;2.40;;;2.10;;
35294;SDS011;21413;48.032;7.764;2022-07-10T12:16:43;4.40;;;1.67;;
35294;SDS011;21413;48.032;7.764;2022-07-10T12:19:10;2.70;;;1.40;;
35294;SDS011;21413;48.032;7.764;2022-07-10T12:21:37;5.97;;;1.47;;
35294;SDS011;21413;48.032;7.764;2022-07-10T12:24:03;2.50;;;1.67;;
35294;SDS011;21413;48.032;7.764;2022-07-10T12:26:35;1.40;;;1.40;;
35294;SDS011;21413;48.032;7.764;2022-07-10T12:29:02;2.97;;;1.63;;
35294;SDS011;21413;48.032;7.764;2022-07-10T12:31:32;3.70;;;2.10;;
35294;SDS011;21413;48.032;7.764;2022-07-10T12:34:02;1.47;;;1.27;;
35294;SDS011;21413;48.032;7.764;2022-07-10T12:36:41;1.63;;;1.53;;
35294;SDS011;21413;48.032;7.764;2022-07-10T12:39:11;1.93;;;1.50;;
35294;SDS011;21413;48.032;7.764;2022-07-10T12:44:31;1.70;;;1.57;;
35294;SDS011;21413;48.032;7.764;2022-07-10T12:47:01;1.23;;;1.23;;
35294;SDS011;21413;48.032;7.764;2022-07-10T12:49:28;3.10;;;1.73;;
35294;SDS011;21413;48.032;7.764;2022-07-10T12:51:54;1.43;;;1.30;;
35294;SDS011;21413;48.032;7.764;2022-07-10T12:54:33;1.60;;;1.50;;
35294;SDS011;21413;48.032;7.764;2022-07-10T12:56:59;6.03;;;1.30;;
35294;SDS011;21413;48.032;7.764;2022-07-10T12:59:25;2.10;;;1.37;;
35294;SDS011;21413;48.032;7.764;2022-07-10T13:01:53;2.30;;;1.60;;
35294;SDS011;21413;48.032;7.764;2022-07-10T13:04:22;1.60;;;1.50;;
35294;SDS011;21413;48.032;7.764;2022-07-10T13:06:50;1.80;;;1.60;;
35294;SDS011;21413;48.032;7.764;2022-07-10T13:09:19;2.97;;;1.40;;
35294;SDS011;21413;48.032;7.764;2022-07-10T13:11:46;3.13;;;1.30;;
35294;SDS011;21413;48.032;7.764;2022-07-10T13:14:12;2.80;;;1.50;;
35294;SDS011;21413;48.032;7.764;2022-07-10T13:16:38;3.83;;;1.63;;
35294;SDS011;21413;48.032;7.764;2022-07-10T13:19:05;3.73;;;1.23;;
35294;SDS011;21413;48.032;7.764;2022-07-10T13:21:30;1.50;;;1.17;;
35294;SDS011;21413;48.032;7.764;2022-07-10T13:23:56;2.00;;;1.30;;
35294;SDS011;21413;48.032;7.764;2022-07-10T13:26:22;3.87;;;1.30;;
35294;SDS011;21413;48.032;7.764;2022-07-10T13:28:48;1.43;;;1.43;;
35294;SDS011;21413;48.032;7.764;2022-07-10T13:31:14;3.50;;;1.80;;
35294;SDS011;21413;48.032;7.764;2022-07-10T13:33:41;2.33;;;1.50;;
35294;SDS011;21413;48.032;7.764;2022-07-10T13:36:07;1.37;;;1.30;;
35294;SDS011;21413;48.032;7.764;2022-07-10T13:38:33;1.40;;;1.30;;
35294;SDS011;21413;48.032;7.764;2022-07-10T13:40:59;1.10;;;0.90;;
35294;SDS011;21413;48.032;7.764;2022-07-10T13:43:25;1.20;;;1.20;;
35294;SDS011;21413;48.032;7.764;2022-07-10T13:45:56;1.07;;;1.07;;
35294;SDS011;21413;48.032;7.764;2022-07-10T13:48:22;1.00;;;1.00;;
35294;SDS011;21413;48.032;7.764;2022-07-10T13:50:50;1.07;;;1.03;;
35294;SDS011;21413;48.032;7.764;2022-07-10T13:53:17;1.93;;;1.20;;
35294;SDS011;21413;48.032;7.764;2022-07-10T13:55:43;1.80;;;1.30;;
35294;SDS011;21413;48.032;7.764;2022-07-10T13:58:09;1.50;;;0.97;;
35294;SDS011;21413;48.032;7.764;2022-07-10T14:00:35;1.53;;;1.07;;
35294;SDS011;21413;48.032;7.764;2022-07-10T14:03:02;1.53;;;1.27;;
35294;SDS011;21413;48.032;7.764;2022-07-10T14:05:28;2.20;;;1.03;;
35294;SDS011;21413;48.032;7.764;2022-07-10T14:07:54;1.47;;;1.37;;
35294;SDS011;21413;48.032;7.764;2022-07-10T14:10:20;1.13;;;1.10;;
35294;SDS011;21413;48.032;7.764;2022-07-10T14:12:46;3.33;;;1.07;;
35294;SDS011;21413;48.032;7.764;2022-07-10T14:15:12;2.93;;;1.17;;
35294;SDS011;21413;48.032;7.764;2022-07-10T14:17:38;2.30;;;1.10;;
35294;SDS011;21413;48.032;7.764;2022-07-10T14:20:04;1.10;;;1.10;;
35294;SDS011;21413;48.032;7.764;2022-07-10T14:22:31;1.00;;;1.00;;
35294;SDS011;21413;48.032;7.764;2022-07-10T14:24:57;0.90;;;0.90;;
35294;SDS011;21413;48.032;7.764;2022-07-10T14:27:23;4.10;;;0.93;;
35294;SDS011;21413;48.032;7.764;2022-07-10T14:29:49;1.27;;;0.80;;
35294;SDS011;21413;48.032;7.764;2022-07-10T14:32:16;1.90;;;1.10;;
35294;SDS011;21413;48.032;7.764;2022-07-10T14:34:42;1.27;;;1.00;;
35294;SDS011;21413;48.032;7.764;2022-07-10T14:37:08;1.10;;;1.10;;
35294;SDS011;21413;48.032;7.764;2022-07-10T14:39:34;2.43;;;1.00;;
35294;SDS011;21413;48.032;7.764;2022-07-10T14:42:01;1.20;;;1.10;;
35294;SDS011;21413;48.032;7.764;2022-07-10T14:44:27;0.80;;;0.80;;
35294;SDS011;21413;48.032;7.764;2022-07-10T14:46:53;0.63;;;0.63;;
35294;SDS011;21413;48.032;7.764;2022-07-10T14:49:19;5.50;;;1.17;;
35294;SDS011;21413;48.032;7.764;2022-07-10T14:51:45;1.83;;;0.70;;
35294;SDS011;21413;48.032;7.764;2022-07-10T14:54:11;0.77;;;0.77;;
35294;SDS011;21413;48.032;7.764;2022-07-10T14:56:37;0.83;;;0.70;;
35294;SDS011;21413;48.032;7.764;2022-07-10T14:59:03;2.20;;;0.83;;
35294;SDS011;21413;48.032;7.764;2022-07-10T15:01:28;2.30;;;0.70;;
35294;SDS011;21413;48.032;7.764;2022-07-10T15:03:54;4.00;;;0.90;;
35294;SDS011;21413;48.032;7.764;2022-07-10T15:06:22;2.30;;;0.70;;
35294;SDS011;21413;48.032;7.764;2022-07-10T15:08:48;0.90;;;0.90;;
35294;SDS011;21413;48.032;7.764;2022-07-10T15:11:16;0.93;;;0.80;;
35294;SDS011;21413;48.032;7.764;2022-07-10T15:13:42;0.60;;;0.60;;
35294;SDS011;21413;48.032;7.764;2022-07-10T15:16:08;0.90;;;0.70;;
35294;SDS011;21413;48.032;7.764;2022-07-10T15:18:34;1.13;;;0.80;;
35294;SDS011;21413;48.032;7.764;2022-07-10T15:21:00;0.70;;;0.70;;
35294;SDS011;21413;48.032;7.764;2022-07-10T15:23:26;1.33;;;0.90;;